createdAt,value
2017-08-27T00:00:53.761Z,24.73
2017-08-27T00:02:02.736Z,24.8
2017-08-27T00:03:11.729Z,24.76
2017-08-27T00:04:20.386Z,24.73
2017-08-27T00:05:29.344Z,24.76
2017-08-27T00:06:38.313Z,24.71
2017-08-27T00:07:47.600Z,24.68
2017-08-27T00:08:56.886Z,24.76
2017-08-27T00:10:05.542Z,24.76
2017-08-27T00:11:14.837Z,24.69
2017-08-27T00:12:23.806Z,24.76
2017-08-27T00:13:32.776Z,24.77
2017-08-27T00:14:41.750Z,24.78
2017-08-27T00:15:50.710Z,24.71
2017-08-27T00:16:59.991Z,24.77
2017-08-27T00:18:08.799Z,24.69
2017-08-27T00:19:18.440Z,24.77
2017-08-27T00:20:27.400Z,24.68
2017-08-27T00:21:36.058Z,24.76
2017-08-27T00:22:45.021Z,24.71
2017-08-27T00:23:53.999Z,24.68
2017-08-27T00:25:03.282Z,24.76
2017-08-27T00:26:12.900Z,24.64
2017-08-27T00:27:21.864Z,24.69
2017-08-27T00:28:30.854Z,24.73
2017-08-27T00:29:40.134Z,24.68
2017-08-27T00:30:49.114Z,24.62
2017-08-27T00:31:58.425Z,24.67
2017-08-27T00:33:07.089Z,24.62
2017-08-27T00:34:15.740Z,24.67
2017-08-27T00:35:24.421Z,24.68
2017-08-27T00:36:33.079Z,24.61
2017-08-27T00:37:41.744Z,24.62
2017-08-27T00:38:50.410Z,24.58
2017-08-27T00:39:59.369Z,24.64
2017-08-27T00:41:08.025Z,24.64
2017-08-27T00:42:16.691Z,24.62
2017-08-27T00:43:25.669Z,24.58
2017-08-27T00:44:34.950Z,24.61
2017-08-27T00:45:44.244Z,24.62
2017-08-27T00:46:53.530Z,24.67
2017-08-27T00:48:02.808Z,24.61
2017-08-27T00:49:11.792Z,24.67
2017-08-27T00:50:20.774Z,24.67
2017-08-27T00:51:29.731Z,24.53
2017-08-27T00:52:39.395Z,24.57
2017-08-27T00:53:48.373Z,24.62
2017-08-27T00:54:57.652Z,24.58
2017-08-27T00:56:06.617Z,24.57
2017-08-27T00:57:15.583Z,24.53
2017-08-27T00:58:24.234Z,24.6
2017-08-27T00:59:32.890Z,24.6
2017-08-27T01:00:41.545Z,24.58
2017-08-27T01:01:50.512Z,24.6
2017-08-27T01:02:59.490Z,24.6
2017-08-27T01:04:08.471Z,24.58
2017-08-27T01:05:17.437Z,24.53
2017-08-27T01:06:26.423Z,24.58
2017-08-27T01:07:35.086Z,24.61
2017-08-27T01:08:43.741Z,24.57
2017-08-27T01:09:52.398Z,24.57
2017-08-27T01:11:01.685Z,24.57
2017-08-27T01:12:11.280Z,24.61
2017-08-27T01:13:20.559Z,24.58
2017-08-27T01:14:29.520Z,24.55
2017-08-27T01:15:38.507Z,24.53
2017-08-27T01:16:47.478Z,24.5
2017-08-27T01:17:57.073Z,24.5
2017-08-27T01:19:06.674Z,24.47
2017-08-27T01:20:15.639Z,24.5
2017-08-27T01:21:24.599Z,24.49
2017-08-27T01:22:33.630Z,24.5
2017-08-27T01:23:42.908Z,24.55
2017-08-27T01:24:51.644Z,24.53
2017-08-27T01:26:00.632Z,24.45
2017-08-27T01:27:09.952Z,24.5
2017-08-27T01:28:18.938Z,24.47
2017-08-27T01:29:27.913Z,24.45
2017-08-27T01:30:37.194Z,24.42
2017-08-27T01:31:45.867Z,24.46
2017-08-27T01:32:54.539Z,24.46
2017-08-27T01:34:03.513Z,24.46
2017-08-27T01:35:12.513Z,24.46
2017-08-27T01:36:21.180Z,24.42
2017-08-27T01:37:30.154Z,24.45
2017-08-27T01:38:39.444Z,24.39
2017-08-27T01:39:48.748Z,24.39
2017-08-27T01:40:57.408Z,24.43
2017-08-27T01:42:06.762Z,24.49
2017-08-27T01:43:16.050Z,24.46
2017-08-27T01:44:25.026Z,24.5
2017-08-27T01:45:33.993Z,24.43
2017-08-27T01:46:42.963Z,24.46
2017-08-27T01:47:51.642Z,24.49
2017-08-27T01:49:00.315Z,24.49
2017-08-27T01:50:09.600Z,24.43
2017-08-27T01:51:18.571Z,24.42
2017-08-27T01:52:27.576Z,24.42
2017-08-27T01:53:36.861Z,24.42
2017-08-27T01:54:45.524Z,24.42
2017-08-27T01:55:54.816Z,24.42
2017-08-27T01:57:04.418Z,24.39
2017-08-27T01:58:13.709Z,24.45
2017-08-27T01:59:22.377Z,24.37
2017-08-27T02:00:31.676Z,24.43
2017-08-27T02:01:40.654Z,24.37
2017-08-27T02:02:49.930Z,24.35
2017-08-27T02:03:58.601Z,24.45
2017-08-27T02:05:07.897Z,24.43
2017-08-27T02:06:16.880Z,24.32
2017-08-27T02:07:26.170Z,24.34
2017-08-27T02:08:35.447Z,24.42
2017-08-27T02:09:44.729Z,24.42
2017-08-27T02:10:53.708Z,24.45
2017-08-27T02:12:03.007Z,24.35
2017-08-27T02:13:11.990Z,24.34
2017-08-27T02:14:21.271Z,24.35
2017-08-27T02:15:30.243Z,24.34
2017-08-27T02:16:39.541Z,24.3
2017-08-27T02:17:49.170Z,24.3
2017-08-27T02:18:58.470Z,24.28
2017-08-27T02:20:07.757Z,24.25
2017-08-27T02:21:17.682Z,24.08
2017-08-27T02:22:26.959Z,24.15
2017-08-27T02:23:35.931Z,24.2
2017-08-27T02:24:44.906Z,24.22
2017-08-27T02:25:54.195Z,24.18
2017-08-27T02:27:03.184Z,24.18
2017-08-27T02:28:12.152Z,24.18
2017-08-27T02:29:21.439Z,24.09
2017-08-27T02:30:30.720Z,24.1
2017-08-27T02:31:40.032Z,24.09
2017-08-27T02:32:49.008Z,24.13
2017-08-27T02:33:57.984Z,24.15
2017-08-27T02:35:07.264Z,24.1
2017-08-27T02:36:16.862Z,24.06
2017-08-27T02:37:26.464Z,24.05
2017-08-27T02:38:35.124Z,24.08
2017-08-27T02:39:44.715Z,24.06
2017-08-27T02:40:53.686Z,24.05
2017-08-27T02:42:03.279Z,24.03
2017-08-27T02:43:12.259Z,23.97
2017-08-27T02:44:20.917Z,23.91
2017-08-27T02:45:29.878Z,23.95
2017-08-27T02:46:38.834Z,23.88
2017-08-27T02:47:48.105Z,23.91
2017-08-27T02:48:57.415Z,23.93
2017-08-27T02:50:07.011Z,23.93
2017-08-27T02:51:16.422Z,23.94
2017-08-27T02:52:25.396Z,23.94
2017-08-27T02:53:34.443Z,23.94
2017-08-27T02:54:43.103Z,23.95
2017-08-27T02:55:51.773Z,23.9
2017-08-27T02:57:00.739Z,23.87
2017-08-27T02:58:09.720Z,23.94
2017-08-27T02:59:18.686Z,23.85
2017-08-27T03:00:27.969Z,23.85
2017-08-27T03:01:36.932Z,23.91
2017-08-27T03:02:45.912Z,23.88
2017-08-27T03:03:54.885Z,23.87
2017-08-27T03:05:03.857Z,23.8
2017-08-27T03:06:12.897Z,23.79
2017-08-27T03:07:21.871Z,23.72
2017-08-27T03:08:31.184Z,23.79
2017-08-27T03:09:39.805Z,23.8
2017-08-27T03:10:49.428Z,23.7
2017-08-27T03:11:58.708Z,23.63
2017-08-27T03:13:07.668Z,23.76
2017-08-27T03:14:16.335Z,23.66
2017-08-27T03:15:25.613Z,23.65
2017-08-27T03:16:34.901Z,23.73
2017-08-27T03:17:43.568Z,23.63
2017-08-27T03:18:53.164Z,23.65
2017-08-27T03:20:02.756Z,23.66
2017-08-27T03:21:12.071Z,23.68
2017-08-27T03:22:20.790Z,23.72
2017-08-27T03:23:30.066Z,23.7
2017-08-27T03:24:39.678Z,23.73
2017-08-27T03:25:49.280Z,23.68
2017-08-27T03:26:58.283Z,23.7
2017-08-27T03:28:07.877Z,23.66
2017-08-27T03:29:17.156Z,23.72
2017-08-27T03:30:25.817Z,23.68
2017-08-27T03:31:34.844Z,23.66
2017-08-27T03:32:44.122Z,23.7
2017-08-27T03:33:53.401Z,23.63
2017-08-27T03:35:02.058Z,23.69
2017-08-27T03:36:11.024Z,23.69
2017-08-27T03:37:19.679Z,23.66
2017-08-27T03:38:28.652Z,23.61
2017-08-27T03:39:37.305Z,23.61
2017-08-27T03:40:46.902Z,23.58
2017-08-27T03:41:56.226Z,23.63
2017-08-27T03:43:04.888Z,23.6
2017-08-27T03:44:14.188Z,23.54
2017-08-27T03:45:23.188Z,23.55
2017-08-27T03:46:32.477Z,23.57
2017-08-27T03:47:41.137Z,23.55
2017-08-27T03:48:49.855Z,23.57
2017-08-27T03:49:58.837Z,23.54
2017-08-27T03:51:07.573Z,23.51
2017-08-27T03:52:16.879Z,23.57
2017-08-27T03:53:26.174Z,23.57
2017-08-27T03:54:34.836Z,23.55
2017-08-27T03:55:43.803Z,23.51
2017-08-27T03:56:52.770Z,23.5
2017-08-27T03:58:01.431Z,23.54
2017-08-27T03:59:10.413Z,23.51
2017-08-27T04:00:19.392Z,23.47
2017-08-27T04:01:28.375Z,23.53
2017-08-27T04:02:37.677Z,23.53
2017-08-27T04:03:47.287Z,23.53
2017-08-27T04:04:56.275Z,23.5
2017-08-27T04:06:05.256Z,23.51
2017-08-27T04:07:13.929Z,23.53
2017-08-27T04:08:22.906Z,23.53
2017-08-27T04:09:32.204Z,23.51
2017-08-27T04:10:41.169Z,23.58
2017-08-27T04:11:50.146Z,23.54
2017-08-27T04:12:59.447Z,23.55
2017-08-27T04:14:08.103Z,23.61
2017-08-27T04:15:18.005Z,23.57
2017-08-27T04:16:27.289Z,23.63
2017-08-27T04:17:35.950Z,23.65
2017-08-27T04:18:45.250Z,23.63
2017-08-27T04:19:54.238Z,23.75
2017-08-27T04:21:03.274Z,23.76
2017-08-27T04:22:12.563Z,23.61
2017-08-27T04:23:21.530Z,23.68
2017-08-27T04:24:31.126Z,23.69
2017-08-27T04:25:40.711Z,23.7
2017-08-27T04:26:49.373Z,23.68
2017-08-27T04:27:58.970Z,23.73
2017-08-27T04:29:08.582Z,23.79
2017-08-27T04:30:17.236Z,23.75
2017-08-27T04:31:25.959Z,23.68
2017-08-27T04:32:34.928Z,23.61
2017-08-27T04:33:43.921Z,23.76
2017-08-27T04:34:53.201Z,23.79
2017-08-27T04:36:02.487Z,23.73
2017-08-27T04:37:11.137Z,23.76
2017-08-27T04:38:20.438Z,23.73
2017-08-27T04:39:29.095Z,23.63
2017-08-27T04:40:38.391Z,23.73
2017-08-27T04:41:47.997Z,23.75
2017-08-27T04:42:57.609Z,23.79
2017-08-27T04:46:38.959Z,23.7
2017-08-27T04:47:47.925Z,23.65
2017-08-27T04:48:56.907Z,23.63
2017-08-27T04:52:38.560Z,23.55
2017-08-27T04:53:48.170Z,23.58
2017-08-27T04:54:57.787Z,23.53
2017-08-27T04:56:07.374Z,23.48
2017-08-27T04:57:16.028Z,23.58
2017-08-27T04:58:25.006Z,23.51
2017-08-27T04:59:33.972Z,23.55
2017-08-27T05:00:43.570Z,23.53
2017-08-27T05:01:52.546Z,23.54
2017-08-27T05:03:01.859Z,23.54
2017-08-27T05:04:11.138Z,23.5
2017-08-27T05:05:19.805Z,23.57
2017-08-27T05:06:28.781Z,23.58
2017-08-27T05:07:37.750Z,23.6
2017-08-27T05:08:47.033Z,23.6
2017-08-27T05:09:56.659Z,23.57
2017-08-27T05:11:05.633Z,23.6
2017-08-27T05:12:14.600Z,23.65
2017-08-27T05:13:23.908Z,23.63
2017-08-27T05:14:32.568Z,23.6
2017-08-27T05:15:41.868Z,23.65
2017-08-27T05:16:50.853Z,23.63
2017-08-27T05:17:59.520Z,23.63
2017-08-27T05:19:08.477Z,23.63
2017-08-27T05:20:17.131Z,23.69
2017-08-27T05:21:26.737Z,23.7
2017-08-27T05:22:35.714Z,23.66
2017-08-27T05:23:45.002Z,23.78
2017-08-27T05:24:53.738Z,23.66
2017-08-27T05:26:03.092Z,23.73
2017-08-27T05:27:11.752Z,23.72
2017-08-27T05:28:21.358Z,23.63
2017-08-27T05:29:30.342Z,23.72
2017-08-27T05:30:39.885Z,23.63
2017-08-27T05:31:49.164Z,23.65
2017-08-27T05:32:58.759Z,23.75
2017-08-27T05:34:08.033Z,23.73
2017-08-27T05:35:16.792Z,23.76
2017-08-27T05:36:26.150Z,23.73
2017-08-27T05:37:35.345Z,23.68
2017-08-27T05:38:44.747Z,23.7
2017-08-27T05:39:54.039Z,23.61
2017-08-27T05:41:02.712Z,23.69
2017-08-27T05:42:11.680Z,23.61
2017-08-27T05:43:20.963Z,23.63
2017-08-27T05:44:29.946Z,23.63
2017-08-27T05:45:39.893Z,23.65
2017-08-27T05:46:49.205Z,23.63
2017-08-27T05:47:59.167Z,23.63
2017-08-27T05:49:07.828Z,23.63
2017-08-27T05:50:17.125Z,23.68
2017-08-27T05:51:26.087Z,23.69
2017-08-27T05:52:35.061Z,23.68
2017-08-27T05:53:44.663Z,23.63
2017-08-27T05:54:53.970Z,23.69
2017-08-27T05:56:02.935Z,23.63
2017-08-27T05:57:11.927Z,23.6
2017-08-27T05:58:21.222Z,23.63
2017-08-27T05:59:30.195Z,23.61
2017-08-27T06:00:38.853Z,23.58
2017-08-27T06:01:48.512Z,23.66
2017-08-27T06:02:57.810Z,23.61
2017-08-27T06:04:06.769Z,23.55
2017-08-27T06:05:15.755Z,23.6
2017-08-27T06:06:24.416Z,23.55
2017-08-27T06:07:34.015Z,23.58
2017-08-27T06:08:42.661Z,23.57
2017-08-27T06:09:51.307Z,23.63
2017-08-27T06:11:00.336Z,23.61
2017-08-27T06:12:09.682Z,23.61
2017-08-27T06:13:18.658Z,23.65
2017-08-27T06:14:27.661Z,23.65
2017-08-27T06:15:36.977Z,23.65
2017-08-27T06:16:46.275Z,23.76
2017-08-27T06:17:55.568Z,23.72
2017-08-27T06:19:04.853Z,23.84
2017-08-27T06:20:13.513Z,23.8
2017-08-27T06:21:22.470Z,23.68
2017-08-27T06:22:31.453Z,23.83
2017-08-27T06:23:40.427Z,23.83
2017-08-27T06:24:49.401Z,23.7
2017-08-27T06:25:58.379Z,23.8
2017-08-27T06:27:07.691Z,23.91
2017-08-27T06:28:16.993Z,23.87
2017-08-27T06:29:25.654Z,23.9
2017-08-27T06:30:34.651Z,23.87
2017-08-27T06:31:43.616Z,23.88
2017-08-27T06:32:52.588Z,23.94
2017-08-27T06:34:02.185Z,23.94
2017-08-27T06:35:11.175Z,24.05
2017-08-27T06:36:20.165Z,24.09
2017-08-27T06:37:29.168Z,24.1
2017-08-27T06:38:38.460Z,24.1
2017-08-27T06:39:48.068Z,23.94
2017-08-27T06:40:57.375Z,23.94
2017-08-27T06:42:06.045Z,24.06
2017-08-27T06:43:14.729Z,23.98
2017-08-27T06:44:23.694Z,23.94
2017-08-27T06:45:32.675Z,23.95
2017-08-27T06:46:41.344Z,23.98
2017-08-27T06:47:50.644Z,23.87
2017-08-27T06:48:59.303Z,23.83
2017-08-27T06:50:07.966Z,23.88
2017-08-27T06:51:17.602Z,23.8
2017-08-27T06:52:27.528Z,23.88
2017-08-27T06:53:36.511Z,23.9
2017-08-27T06:54:45.167Z,23.83
2017-08-27T06:55:54.150Z,23.79
2017-08-27T06:57:03.430Z,23.87
2017-08-27T06:58:12.083Z,23.88
2017-08-27T06:59:21.384Z,23.91
2017-08-27T07:00:30.042Z,23.95
2017-08-27T07:01:39.327Z,23.88
2017-08-27T07:02:47.979Z,23.88
2017-08-27T07:03:57.264Z,23.9
2017-08-27T07:05:06.897Z,24.08
2017-08-27T07:06:15.547Z,24.12
2017-08-27T07:07:24.839Z,24.12
2017-08-27T07:08:34.117Z,24.18
2017-08-27T07:09:43.406Z,24.18
2017-08-27T07:10:52.377Z,24.32
2017-08-27T07:12:01.653Z,24.28
2017-08-27T07:13:10.629Z,24.3
2017-08-27T07:14:19.282Z,24.32
2017-08-27T07:15:28.259Z,24.32
2017-08-27T07:16:37.232Z,24.32
2017-08-27T07:17:46.204Z,24.4
2017-08-27T07:18:54.875Z,24.45
2017-08-27T07:20:16.579Z,24.55
2017-08-27T07:21:25.585Z,24.52
2017-08-27T07:22:34.555Z,24.58
2017-08-27T07:23:43.532Z,24.6
2017-08-27T07:24:52.822Z,24.58
2017-08-27T07:26:02.130Z,24.52
2017-08-27T07:27:11.107Z,24.62
2017-08-27T07:28:20.221Z,24.46
2017-08-27T07:29:29.278Z,24.47
2017-08-27T07:30:38.896Z,24.46
2017-08-27T07:31:48.510Z,24.52
2017-08-27T07:32:57.494Z,24.47
2017-08-27T07:34:06.621Z,24.55
2017-08-27T07:35:16.240Z,24.53
2017-08-27T07:36:25.212Z,24.6
2017-08-27T07:37:34.211Z,24.6
2017-08-27T07:38:43.497Z,24.55
2017-08-27T07:39:52.943Z,24.57
2017-08-27T07:41:01.973Z,24.53
2017-08-27T07:42:11.249Z,24.47
2017-08-27T07:43:19.937Z,24.57
2017-08-27T07:44:29.211Z,24.47
2017-08-27T07:45:38.176Z,24.49
2017-08-27T07:46:47.456Z,24.52
2017-08-27T07:47:56.733Z,24.47
2017-08-27T07:49:06.391Z,24.53
2017-08-27T07:50:15.048Z,24.57
2017-08-27T07:51:24.035Z,24.55
2017-08-27T07:52:33.003Z,24.52
2017-08-27T07:53:42.301Z,24.52
2017-08-27T07:54:51.590Z,24.53
2017-08-27T07:56:00.256Z,24.58
2017-08-27T07:57:09.596Z,24.62
2017-08-27T07:58:18.253Z,24.67
2017-08-27T07:59:26.933Z,24.67
2017-08-27T08:00:35.597Z,24.69
2017-08-27T08:01:45.536Z,24.69
2017-08-27T08:02:54.557Z,24.77
2017-08-27T08:04:03.212Z,24.71
2017-08-27T08:05:12.490Z,24.67
2017-08-27T08:06:21.775Z,24.62
2017-08-27T08:07:30.738Z,24.68
2017-08-27T08:08:40.169Z,24.67
2017-08-27T08:09:49.136Z,24.68
2017-08-27T08:10:57.806Z,24.76
2017-08-27T08:12:07.412Z,24.77
2017-08-27T08:13:16.379Z,24.77
2017-08-27T08:14:25.344Z,24.77
2017-08-27T08:15:34.973Z,24.83
2017-08-27T08:16:43.954Z,24.81
2017-08-27T08:17:52.931Z,24.78
2017-08-27T08:19:01.906Z,24.96
2017-08-27T08:20:11.332Z,25.02
2017-08-27T08:21:20.649Z,25.14
2017-08-27T08:22:29.629Z,25.18
2017-08-27T08:23:38.597Z,25.21
2017-08-27T08:24:47.936Z,25.28
2017-08-27T08:25:57.367Z,25.32
2017-08-27T08:27:06.060Z,25.35
2017-08-27T08:28:15.041Z,25.46
2017-08-27T08:29:24.029Z,25.45
2017-08-27T08:30:32.676Z,25.52
2017-08-27T08:31:41.649Z,25.54
2017-08-27T08:32:50.670Z,25.57
2017-08-27T08:34:00.278Z,25.62
2017-08-27T08:35:08.976Z,25.67
2017-08-27T08:36:18.269Z,25.65
2017-08-27T08:37:27.425Z,25.61
2017-08-27T08:38:36.723Z,25.72
2017-08-27T08:39:45.711Z,25.72
2017-08-27T08:40:54.690Z,25.79
2017-08-27T08:42:03.988Z,25.91
2017-08-27T08:43:12.947Z,25.94
2017-08-27T08:44:22.252Z,25.97
2017-08-27T08:45:31.230Z,25.97
2017-08-27T08:46:40.199Z,26.01
2017-08-27T08:47:49.178Z,25.97
2017-08-27T08:48:58.302Z,26.02
2017-08-27T08:50:07.609Z,26.07
2017-08-27T08:51:16.268Z,26.12
2017-08-27T08:52:24.913Z,26.2
2017-08-27T08:53:33.955Z,26.26
2017-08-27T08:54:43.763Z,26.23
2017-08-27T08:55:53.478Z,26.25
2017-08-27T08:57:03.462Z,26.29
2017-08-27T08:58:12.836Z,26.36
2017-08-27T08:59:22.776Z,26.32
2017-08-27T09:00:32.406Z,26.37
2017-08-27T09:01:41.115Z,26.43
2017-08-27T09:02:50.097Z,26.4
2017-08-27T09:03:59.835Z,26.43
2017-08-27T09:05:08.602Z,26.44
2017-08-27T09:06:18.617Z,26.54
2017-08-27T09:07:28.054Z,26.57
2017-08-27T09:08:37.392Z,26.55
2017-08-27T09:09:47.023Z,26.47
2017-08-27T09:10:56.004Z,26.57
2017-08-27T09:12:05.331Z,26.55
2017-08-27T09:13:14.326Z,26.65
2017-08-27T09:14:23.340Z,26.63
2017-08-27T09:15:32.065Z,26.65
2017-08-27T09:16:41.769Z,26.67
2017-08-27T09:17:51.087Z,26.65
2017-08-27T09:19:00.472Z,26.67
2017-08-27T09:20:09.812Z,26.7
2017-08-27T09:21:18.526Z,26.63
2017-08-27T09:22:27.604Z,26.73
2017-08-27T09:23:36.300Z,26.69
2017-08-27T09:24:45.294Z,26.72
2017-08-27T09:25:54.893Z,26.77
2017-08-27T09:27:03.878Z,26.7
2017-08-27T09:28:13.514Z,26.7
2017-08-27T09:29:22.639Z,26.63
2017-08-27T09:30:32.049Z,26.67
2017-08-27T09:31:41.041Z,26.67
2017-08-27T09:32:50.040Z,26.62
2017-08-27T09:34:00.338Z,26.54
2017-08-27T09:35:09.167Z,26.48
2017-08-27T09:36:17.837Z,26.39
2017-08-27T09:37:26.832Z,26.33
2017-08-27T09:38:35.513Z,26.3
2017-08-27T09:39:44.532Z,26.3
2017-08-27T09:40:53.622Z,26.29
2017-08-27T09:42:02.646Z,26.32
2017-08-27T09:43:11.331Z,26.09
2017-08-27T09:44:20.054Z,26.1
2017-08-27T09:45:29.043Z,26.02
2017-08-27T09:46:37.880Z,25.98
2017-08-27T09:47:47.173Z,25.98
2017-08-27T09:48:56.523Z,25.91
2017-08-27T09:50:06.130Z,25.91
2017-08-27T09:51:15.686Z,25.88
2017-08-27T09:52:25.134Z,25.88
2017-08-27T09:53:33.799Z,25.82
2017-08-27T09:54:43.104Z,25.82
2017-08-27T09:55:52.406Z,25.76
2017-08-27T09:57:02.008Z,25.76
2017-08-27T09:58:11.432Z,25.75
2017-08-27T09:59:20.728Z,25.7
2017-08-27T10:00:30.421Z,25.62
2017-08-27T10:01:39.747Z,25.62
2017-08-27T10:02:48.402Z,25.64
2017-08-27T10:03:58.138Z,25.55
2017-08-27T10:05:07.429Z,25.57
2017-08-27T10:06:16.099Z,25.54
2017-08-27T10:07:25.070Z,25.51
2017-08-27T10:08:34.709Z,25.47
2017-08-27T10:09:43.523Z,25.51
2017-08-27T10:10:53.162Z,25.54
2017-08-27T10:12:01.891Z,25.58
2017-08-27T10:13:11.495Z,25.5
2017-08-27T10:14:20.493Z,25.51
2017-08-27T10:15:30.748Z,25.51
2017-08-27T10:16:40.049Z,25.54
2017-08-27T10:17:48.707Z,25.55
2017-08-27T10:18:57.363Z,25.61
2017-08-27T10:20:06.429Z,25.54
2017-08-27T10:21:15.855Z,25.57
2017-08-27T10:22:24.562Z,25.6
2017-08-27T10:23:33.583Z,25.6
2017-08-27T10:24:42.563Z,25.54
2017-08-27T10:25:51.633Z,25.54
2017-08-27T10:27:01.710Z,25.54
2017-08-27T10:28:11.359Z,25.55
2017-08-27T10:29:20.442Z,25.57
2017-08-27T10:30:29.408Z,25.55
2017-08-27T10:31:38.903Z,25.54
2017-08-27T10:32:48.658Z,25.58
2017-08-27T10:33:58.271Z,25.52
2017-08-27T10:35:07.563Z,25.5
2017-08-27T10:36:16.226Z,25.61
2017-08-27T10:37:25.543Z,25.47
2017-08-27T10:38:34.206Z,25.51
2017-08-27T10:39:43.323Z,25.51
2017-08-27T10:40:52.001Z,25.52
2017-08-27T10:42:01.611Z,25.54
2017-08-27T10:43:10.351Z,25.55
2017-08-27T10:44:19.370Z,25.45
2017-08-27T10:45:28.651Z,25.6
2017-08-27T10:46:37.641Z,25.51
2017-08-27T10:47:46.626Z,25.55
2017-08-27T10:48:55.621Z,25.54
2017-08-27T10:50:05.205Z,25.52
2017-08-27T10:51:13.864Z,25.51
2017-08-27T10:52:22.852Z,25.57
2017-08-27T10:53:31.513Z,25.57
2017-08-27T10:54:41.450Z,25.46
2017-08-27T10:55:50.108Z,25.54
2017-08-27T10:56:59.446Z,25.55
2017-08-27T10:58:08.115Z,25.55
2017-08-27T10:59:17.148Z,25.55
2017-08-27T11:00:25.804Z,25.47
2017-08-27T11:01:35.572Z,25.52
2017-08-27T11:02:45.206Z,25.58
2017-08-27T11:03:54.490Z,25.55
2017-08-27T11:05:03.823Z,25.5
2017-08-27T11:06:12.866Z,25.5
2017-08-27T11:07:21.876Z,25.57
2017-08-27T11:11:03.860Z,25.45
2017-08-27T11:12:12.513Z,25.51
2017-08-27T11:13:21.946Z,25.47
2017-08-27T11:14:31.254Z,25.51
2017-08-27T11:15:40.581Z,25.39
2017-08-27T11:16:49.546Z,25.33
2017-08-27T11:17:58.819Z,25.4
2017-08-27T11:19:07.827Z,25.36
2017-08-27T11:20:16.485Z,25.39
2017-08-27T11:21:25.468Z,25.33
2017-08-27T11:22:35.094Z,25.38
2017-08-27T11:23:44.085Z,25.39
2017-08-27T11:24:53.477Z,25.38
2017-08-27T11:26:02.467Z,25.36
2017-08-27T11:27:11.188Z,25.36
2017-08-27T11:28:20.489Z,25.33
2017-08-27T11:29:29.149Z,25.35
2017-08-27T11:30:38.491Z,25.46
2017-08-27T11:31:47.789Z,25.33
2017-08-27T11:32:56.765Z,25.38
2017-08-27T11:34:05.450Z,25.4
2017-08-27T11:35:14.433Z,25.5
2017-08-27T11:36:23.560Z,25.5
2017-08-27T11:37:32.235Z,25.51
2017-08-27T11:38:41.863Z,25.52
2017-08-27T11:39:50.858Z,25.55
2017-08-27T11:41:00.171Z,25.51
2017-08-27T11:42:09.312Z,25.57
2017-08-27T11:43:18.283Z,25.51
2017-08-27T11:44:27.261Z,25.55
2017-08-27T11:45:36.250Z,25.47
2017-08-27T11:46:44.922Z,25.45
2017-08-27T11:47:53.951Z,25.46
2017-08-27T11:49:03.269Z,25.51
2017-08-27T11:50:12.239Z,25.46
2017-08-27T11:51:21.234Z,25.54
2017-08-27T11:52:30.530Z,25.46
2017-08-27T11:53:39.545Z,25.47
2017-08-27T11:54:48.523Z,25.54
2017-08-27T11:55:58.139Z,25.51
2017-08-27T11:57:06.845Z,25.6
2017-08-27T11:58:15.522Z,25.52
2017-08-27T11:59:24.823Z,25.47
2017-08-27T12:00:34.130Z,25.5
2017-08-27T12:01:43.119Z,25.47
2017-08-27T12:02:52.426Z,25.51
2017-08-27T12:04:01.756Z,25.52
2017-08-27T12:05:10.783Z,25.5
2017-08-27T12:06:19.534Z,25.42
2017-08-27T12:07:28.855Z,25.38
2017-08-27T12:08:37.855Z,25.36
2017-08-27T12:09:46.844Z,25.5
2017-08-27T12:10:55.837Z,25.46
2017-08-27T12:12:04.828Z,25.36
2017-08-27T12:13:13.823Z,25.38
2017-08-27T12:14:22.820Z,25.35
2017-08-27T12:15:32.127Z,25.4
2017-08-27T12:16:41.577Z,25.39
2017-08-27T12:17:50.865Z,25.32
2017-08-27T12:18:59.559Z,25.32
2017-08-27T12:20:08.217Z,25.3
2017-08-27T12:21:16.905Z,25.36
2017-08-27T12:22:26.044Z,25.25
2017-08-27T12:23:34.710Z,25.25
2017-08-27T12:24:43.680Z,25.33
2017-08-27T12:25:52.659Z,25.33
2017-08-27T12:27:01.979Z,25.25
2017-08-27T12:28:10.981Z,25.25
2017-08-27T12:29:20.595Z,25.32
2017-08-27T12:30:29.581Z,25.3
2017-08-27T12:31:38.869Z,25.3
2017-08-27T12:32:48.161Z,25.3
2017-08-27T12:33:57.456Z,25.3
2017-08-27T12:35:06.118Z,25.35
2017-08-27T12:36:14.771Z,25.28
2017-08-27T12:37:23.434Z,25.32
2017-08-27T12:38:32.730Z,25.27
2017-08-27T12:39:42.377Z,25.27
2017-08-27T12:40:51.041Z,25.32
2017-08-27T12:42:00.652Z,25.28
2017-08-27T12:43:09.940Z,25.36
2017-08-27T12:44:18.923Z,25.4
2017-08-27T12:45:28.871Z,25.36
2017-08-27T12:46:38.173Z,25.33
2017-08-27T12:47:47.155Z,25.33
2017-08-27T12:48:56.126Z,25.32
2017-08-27T12:50:06.056Z,25.36
2017-08-27T12:51:15.144Z,25.35
2017-08-27T12:52:24.123Z,25.38
2017-08-27T12:53:33.093Z,25.38
2017-08-27T12:54:42.060Z,25.39
2017-08-27T12:55:51.343Z,25.47
2017-08-27T12:57:00.774Z,25.45
2017-08-27T12:58:09.748Z,25.52
2017-08-27T12:59:19.045Z,25.5
2017-08-27T13:00:28.013Z,25.52
2017-08-27T13:01:37.317Z,25.47
2017-08-27T13:02:46.636Z,25.52
2017-08-27T13:03:56.263Z,25.5
2017-08-27T13:05:05.538Z,25.55
2017-08-27T13:06:14.560Z,25.54
2017-08-27T13:07:23.855Z,25.51
2017-08-27T13:08:33.231Z,25.51
2017-08-27T13:09:42.285Z,25.55
2017-08-27T13:10:51.581Z,25.51
2017-08-27T13:12:00.880Z,25.52
2017-08-27T13:13:09.881Z,25.54
2017-08-27T13:14:19.214Z,25.51
2017-08-27T13:15:28.520Z,25.54
2017-08-27T13:16:37.239Z,25.51
2017-08-27T13:17:46.209Z,25.54
2017-08-27T13:18:55.174Z,25.43
2017-08-27T13:20:03.833Z,25.51
2017-08-27T13:21:13.113Z,25.51
2017-08-27T13:22:22.077Z,25.57
2017-08-27T13:23:31.040Z,25.54
2017-08-27T13:24:40.014Z,25.57
2017-08-27T13:25:49.776Z,25.54
2017-08-27T13:26:58.733Z,25.62
2017-08-27T13:28:07.714Z,25.54
2017-08-27T13:29:17.326Z,25.54
2017-08-27T13:30:26.292Z,25.54
2017-08-27T13:31:35.422Z,25.58
2017-08-27T13:32:44.412Z,25.64
2017-08-27T13:33:53.681Z,25.67
2017-08-27T13:35:02.650Z,25.67
2017-08-27T13:36:11.955Z,25.65
2017-08-27T13:37:21.107Z,25.69
2017-08-27T13:38:29.787Z,25.65
2017-08-27T13:39:39.074Z,25.61
2017-08-27T13:40:48.042Z,25.65
2017-08-27T13:41:56.719Z,25.58
2017-08-27T13:43:05.839Z,25.6
2017-08-27T13:44:15.177Z,25.61
2017-08-27T13:45:23.834Z,25.65
2017-08-27T13:46:33.119Z,25.61
2017-08-27T13:47:42.756Z,25.64
2017-08-27T13:48:51.711Z,25.61
2017-08-27T13:50:00.675Z,25.67
2017-08-27T13:51:09.669Z,25.64
2017-08-27T13:52:18.954Z,25.67
2017-08-27T13:53:28.242Z,25.67
2017-08-27T13:54:37.687Z,25.6
2017-08-27T13:55:46.665Z,25.64
2017-08-27T13:56:55.696Z,25.69
2017-08-27T13:58:04.670Z,25.65
2017-08-27T13:59:13.960Z,25.64
2017-08-27T14:00:23.040Z,25.65
2017-08-27T14:01:31.703Z,25.65
2017-08-27T14:02:40.679Z,25.64
2017-08-27T14:03:49.968Z,25.62
2017-08-27T14:04:58.934Z,25.58
2017-08-27T14:06:07.691Z,25.58
2017-08-27T14:07:16.663Z,25.65
2017-08-27T14:08:25.975Z,25.64
2017-08-27T14:09:35.258Z,25.67
2017-08-27T14:10:44.238Z,25.67
2017-08-27T14:11:54.162Z,25.6
2017-08-27T14:13:03.183Z,25.61
2017-08-27T14:14:12.156Z,25.65
2017-08-27T14:15:21.174Z,25.67
2017-08-27T14:16:30.463Z,25.64
2017-08-27T14:17:40.194Z,25.62
2017-08-27T14:18:48.866Z,25.61
2017-08-27T14:19:57.519Z,25.65
2017-08-27T14:21:06.202Z,25.65
2017-08-27T14:22:15.488Z,25.67
2017-08-27T14:23:25.412Z,25.69
2017-08-27T14:24:34.386Z,25.73
2017-08-27T14:25:43.365Z,25.75
2017-08-27T14:26:52.037Z,25.76
2017-08-27T14:28:00.754Z,25.73
2017-08-27T14:29:09.894Z,25.69
2017-08-27T14:30:18.866Z,25.76
2017-08-27T14:31:27.532Z,25.76
2017-08-27T14:32:36.827Z,25.8
2017-08-27T14:33:45.801Z,25.8
2017-08-27T14:34:54.606Z,25.8
2017-08-27T14:36:03.902Z,25.85
2017-08-27T14:37:12.873Z,25.8
2017-08-27T14:38:21.534Z,25.91
2017-08-27T14:39:30.503Z,25.88
2017-08-27T14:40:39.493Z,25.9
2017-08-27T14:41:48.167Z,25.9
2017-08-27T14:42:57.454Z,25.92
2017-08-27T14:44:06.110Z,25.95
2017-08-27T14:45:15.110Z,25.94
2017-08-27T14:46:24.691Z,25.97
2017-08-27T14:47:33.345Z,25.94
2017-08-27T14:48:42.639Z,25.99
2017-08-27T14:49:51.605Z,25.97
2017-08-27T14:51:00.272Z,25.95
2017-08-27T14:52:09.592Z,25.97
2017-08-27T14:53:18.252Z,25.97
2017-08-27T14:54:26.919Z,25.99
2017-08-27T14:55:36.222Z,25.95
2017-08-27T14:56:45.509Z,25.95
2017-08-27T14:57:54.483Z,25.9
2017-08-27T14:59:03.767Z,25.95
2017-08-27T15:00:13.367Z,25.91
2017-08-27T15:01:22.351Z,25.99